Terminal Aerodrome Forecast
Issued by NWS

Home | Current Version | Previous Version | Text Only | Print | Product List | Glossary On
Versions: 1 2 3 4 5 6 7 8 9 10 11 12 13 14 15 16 17 18 19 20 21 22 23 24 25 26 27 28 29 30 31
000
FTUS45 KBYZ 201124
TAFLVM
TAF
KLVM 201124Z 2012/2112 25015KT P6SM SCT060 BKN250
     FM201900 25020G30KT P6SM VCSH SCT060 BKN150 OVC250
     FM210800 23035G50KT P6SM -SHSN OVC040=

USA.gov is the U.S. government's official web portal to all federal, state and local government web resources and services.